sensor_id;sensor_type;location;lat;lon;timestamp;pressure;altitude;pressure_sealevel;temperature;humidity
64139;BME280;50435;43.700;-79.318;2023-11-19T00:00:50;99720.30;;;7.47;42.78
64139;BME280;50435;43.700;-79.318;2023-11-19T00:03:18;99720.68;;;7.23;42.90
64139;BME280;50435;43.700;-79.318;2023-11-19T00:05:45;99711.90;;;7.45;43.03
64139;BME280;50435;43.700;-79.318;2023-11-19T00:08:12;99712.92;;;7.11;43.15
64139;BME280;50435;43.700;-79.318;2023-11-19T00:10:40;99714.88;;;7.39;43.38
64139;BME280;50435;43.700;-79.318;2023-11-19T00:13:07;99701.83;;;7.12;43.31
64139;BME280;50435;43.700;-79.318;2023-11-19T00:15:34;99708.81;;;7.37;43.20
64139;BME280;50435;43.700;-79.318;2023-11-19T00:18:01;99708.42;;;7.88;42.84
64139;BME280;50435;43.700;-79.318;2023-11-19T00:20:28;99703.02;;;7.10;43.30
64139;BME280;50435;43.700;-79.318;2023-11-19T00:22:56;99695.71;;;7.16;43.22
64139;BME280;50435;43.700;-79.318;2023-11-19T00:25:23;99699.89;;;7.01;43.79
64139;BME280;50435;43.700;-79.318;2023-11-19T00:27:50;99701.44;;;6.89;43.95
64139;BME280;50435;43.700;-79.318;2023-11-19T00:30:17;99699.32;;;7.12;44.64
64139;BME280;50435;43.700;-79.318;2023-11-19T00:32:44;99700.71;;;6.80;44.34
64139;BME280;50435;43.700;-79.318;2023-11-19T00:35:12;99704.06;;;6.71;44.20
64139;BME280;50435;43.700;-79.318;2023-11-19T00:37:39;99703.02;;;7.00;44.65
64139;BME280;50435;43.700;-79.318;2023-11-19T00:40:07;99703.10;;;6.42;45.74
64139;BME280;50435;43.700;-79.318;2023-11-19T00:42:35;99714.35;;;6.55;45.84
64139;BME280;50435;43.700;-79.318;2023-11-19T00:45:03;99709.74;;;6.09;46.18
64139;BME280;50435;43.700;-79.318;2023-11-19T00:47:31;99711.32;;;6.39;46.05
64139;BME280;50435;43.700;-79.318;2023-11-19T00:49:58;99707.25;;;6.34;45.87
64139;BME280;50435;43.700;-79.318;2023-11-19T00:52:26;99703.17;;;6.34;46.43
64139;BME280;50435;43.700;-79.318;2023-11-19T00:54:54;99707.61;;;6.16;46.76
64139;BME280;50435;43.700;-79.318;2023-11-19T00:57:21;99706.89;;;6.12;46.35
64139;BME280;50435;43.700;-79.318;2023-11-19T00:59:48;99704.66;;;6.14;46.74
64139;BME280;50435;43.700;-79.318;2023-11-19T01:02:16;99698.10;;;6.13;46.38
64139;BME280;50435;43.700;-79.318;2023-11-19T01:04:43;99698.46;;;6.15;45.96
64139;BME280;50435;43.700;-79.318;2023-11-19T01:07:11;99693.40;;;6.27;45.78
64139;BME280;50435;43.700;-79.318;2023-11-19T01:09:38;99693.81;;;6.23;45.85
64139;BME280;50435;43.700;-79.318;2023-11-19T01:12:09;99690.39;;;6.27;45.80
64139;BME280;50435;43.700;-79.318;2023-11-19T01:14:37;99686.23;;;6.09;45.44
64139;BME280;50435;43.700;-79.318;2023-11-19T01:17:04;99686.03;;;6.08;45.23
64139;BME280;50435;43.700;-79.318;2023-11-19T01:19:32;99687.99;;;6.29;45.52
64139;BME280;50435;43.700;-79.318;2023-11-19T01:22:00;99686.51;;;6.60;45.00
64139;BME280;50435;43.700;-79.318;2023-11-19T01:24:27;99677.93;;;6.36;44.86
64139;BME280;50435;43.700;-79.318;2023-11-19T01:26:55;99679.77;;;6.36;45.16
64139;BME280;50435;43.700;-79.318;2023-11-19T01:29:22;99678.73;;;6.37;45.01
64139;BME280;50435;43.700;-79.318;2023-11-19T01:31:49;99678.67;;;6.69;44.78
64139;BME280;50435;43.700;-79.318;2023-11-19T01:34:17;99681.20;;;6.36;44.93
64139;BME280;50435;43.700;-79.318;2023-11-19T01:36:46;99677.52;;;6.53;44.55
64139;BME280;50435;43.700;-79.318;2023-11-19T01:39:13;99676.25;;;6.32;44.78
64139;BME280;50435;43.700;-79.318;2023-11-19T01:41:40;99671.94;;;6.08;45.09
64139;BME280;50435;43.700;-79.318;2023-11-19T01:44:08;99671.41;;;6.35;44.62
64139;BME280;50435;43.700;-79.318;2023-11-19T01:46:36;99671.93;;;6.30;44.71
64139;BME280;50435;43.700;-79.318;2023-11-19T01:49:04;99676.37;;;5.91;44.81
64139;BME280;50435;43.700;-79.318;2023-11-19T01:51:31;99678.65;;;6.20;44.91
64139;BME280;50435;43.700;-79.318;2023-11-19T01:53:59;99675.97;;;6.40;44.91
64139;BME280;50435;43.700;-79.318;2023-11-19T01:56:27;99675.98;;;6.58;45.18
64139;BME280;50435;43.700;-79.318;2023-11-19T01:58:56;99675.53;;;5.99;45.20
64139;BME280;50435;43.700;-79.318;2023-11-19T02:01:23;99679.86;;;6.35;45.31
64139;BME280;50435;43.700;-79.318;2023-11-19T02:03:52;99670.83;;;6.22;45.18
64139;BME280;50435;43.700;-79.318;2023-11-19T02:06:19;99674.67;;;5.86;45.35
64139;BME280;50435;43.700;-79.318;2023-11-19T02:08:47;99677.80;;;6.22;45.07
64139;BME280;50435;43.700;-79.318;2023-11-19T02:11:15;99673.62;;;5.92;45.17
64139;BME280;50435;43.700;-79.318;2023-11-19T02:13:43;99678.85;;;6.31;44.77
64139;BME280;50435;43.700;-79.318;2023-11-19T02:16:10;99672.99;;;6.03;45.46
64139;BME280;50435;43.700;-79.318;2023-11-19T02:18:38;99666.82;;;5.98;45.13
64139;BME280;50435;43.700;-79.318;2023-11-19T02:21:06;99671.18;;;5.66;45.38
64139;BME280;50435;43.700;-79.318;2023-11-19T02:23:33;99675.34;;;5.85;45.17
64139;BME280;50435;43.700;-79.318;2023-11-19T02:26:08;99669.42;;;6.34;45.18
64139;BME280;50435;43.700;-79.318;2023-11-19T02:28:39;99669.87;;;6.32;45.07
64139;BME280;50435;43.700;-79.318;2023-11-19T02:31:08;99667.40;;;5.75;45.14
64139;BME280;50435;43.700;-79.318;2023-11-19T02:33:36;99675.37;;;5.93;45.15
64139;BME280;50435;43.700;-79.318;2023-11-19T02:36:03;99678.12;;;5.81;45.03
64139;BME280;50435;43.700;-79.318;2023-11-19T02:38:31;99666.64;;;5.83;45.20
64139;BME280;50435;43.700;-79.318;2023-11-19T02:40:59;99666.35;;;5.86;44.93
64139;BME280;50435;43.700;-79.318;2023-11-19T02:43:27;99667.11;;;6.30;45.13
64139;BME280;50435;43.700;-79.318;2023-11-19T02:45:54;99668.24;;;5.58;45.21
64139;BME280;50435;43.700;-79.318;2023-11-19T02:48:22;99670.69;;;5.82;45.31
64139;BME280;50435;43.700;-79.318;2023-11-19T02:50:49;99673.62;;;6.26;45.31
64139;BME280;50435;43.700;-79.318;2023-11-19T02:53:16;99674.23;;;5.59;45.56
64139;BME280;50435;43.700;-79.318;2023-11-19T02:55:44;99676.09;;;5.56;45.35
64139;BME280;50435;43.700;-79.318;2023-11-19T02:58:11;99677.42;;;6.09;45.32
64139;BME280;50435;43.700;-79.318;2023-11-19T03:00:40;99678.98;;;5.66;45.46
64139;BME280;50435;43.700;-79.318;2023-11-19T03:03:08;99680.69;;;5.76;45.30
64139;BME280;50435;43.700;-79.318;2023-11-19T03:05:35;99678.33;;;5.91;45.55
64139;BME280;50435;43.700;-79.318;2023-11-19T03:08:03;99678.99;;;5.54;45.20
64139;BME280;50435;43.700;-79.318;2023-11-19T03:10:31;99674.06;;;5.56;45.53
64139;BME280;50435;43.700;-79.318;2023-11-19T03:12:58;99673.10;;;5.88;45.38
64139;BME280;50435;43.700;-79.318;2023-11-19T03:15:25;99671.22;;;5.72;45.19
64139;BME280;50435;43.700;-79.318;2023-11-19T03:17:53;99667.51;;;5.76;45.56
64139;BME280;50435;43.700;-79.318;2023-11-19T03:20:21;99671.18;;;5.86;45.36
64139;BME280;50435;43.700;-79.318;2023-11-19T03:22:48;99666.91;;;5.92;45.05
64139;BME280;50435;43.700;-79.318;2023-11-19T03:25:16;99664.78;;;5.90;45.29
64139;BME280;50435;43.700;-79.318;2023-11-19T03:27:43;99662.86;;;5.53;45.84
64139;BME280;50435;43.700;-79.318;2023-11-19T03:30:11;99661.08;;;5.73;45.58
64139;BME280;50435;43.700;-79.318;2023-11-19T03:32:39;99656.76;;;5.91;45.16
64139;BME280;50435;43.700;-79.318;2023-11-19T03:35:07;99656.61;;;5.24;45.38
64139;BME280;50435;43.700;-79.318;2023-11-19T03:37:34;99654.64;;;5.70;45.52
64139;BME280;50435;43.700;-79.318;2023-11-19T03:40:03;99650.89;;;5.14;45.57
64139;BME280;50435;43.700;-79.318;2023-11-19T03:42:30;99647.18;;;5.59;45.51
64139;BME280;50435;43.700;-79.318;2023-11-19T03:44:58;99651.42;;;5.75;45.39
64139;BME280;50435;43.700;-79.318;2023-11-19T03:47:25;99648.00;;;5.53;45.74
64139;BME280;50435;43.700;-79.318;2023-11-19T03:49:52;99643.82;;;5.59;45.71
64139;BME280;50435;43.700;-79.318;2023-11-19T03:52:20;99647.67;;;5.61;45.59
64139;BME280;50435;43.700;-79.318;2023-11-19T03:54:48;99648.84;;;5.26;45.70
64139;BME280;50435;43.700;-79.318;2023-11-19T03:57:15;99644.91;;;5.44;45.81
64139;BME280;50435;43.700;-79.318;2023-11-19T03:59:42;99642.07;;;5.26;46.02
64139;BME280;50435;43.700;-79.318;2023-11-19T04:02:10;99646.94;;;5.28;46.13
64139;BME280;50435;43.700;-79.318;2023-11-19T04:04:37;99645.22;;;5.41;45.92
64139;BME280;50435;43.700;-79.318;2023-11-19T04:07:05;99645.97;;;4.99;46.08
64139;BME280;50435;43.700;-79.318;2023-11-19T04:09:32;99643.41;;;5.36;45.85
64139;BME280;50435;43.700;-79.318;2023-11-19T04:12:00;99647.51;;;5.32;45.99
64139;BME280;50435;43.700;-79.318;2023-11-19T04:14:27;99646.09;;;5.24;46.07
64139;BME280;50435;43.700;-79.318;2023-11-19T04:16:55;99647.27;;;5.11;46.16
64139;BME280;50435;43.700;-79.318;2023-11-19T04:19:22;99648.56;;;5.36;45.79
64139;BME280;50435;43.700;-79.318;2023-11-19T04:21:50;99643.25;;;5.62;45.78
64139;BME280;50435;43.700;-79.318;2023-11-19T04:24:17;99650.96;;;5.06;46.26
64139;BME280;50435;43.700;-79.318;2023-11-19T04:26:45;99653.92;;;5.41;46.11
64139;BME280;50435;43.700;-79.318;2023-11-19T04:29:13;99652.81;;;5.18;46.06
64139;BME280;50435;43.700;-79.318;2023-11-19T04:31:41;99657.72;;;4.89;46.17
64139;BME280;50435;43.700;-79.318;2023-11-19T04:34:09;99651.80;;;4.96;46.07
64139;BME280;50435;43.700;-79.318;2023-11-19T04:36:37;99656.18;;;5.13;45.92
64139;BME280;50435;43.700;-79.318;2023-11-19T04:39:05;99661.42;;;5.20;46.00
64139;BME280;50435;43.700;-79.318;2023-11-19T04:41:33;99661.08;;;5.08;46.30
64139;BME280;50435;43.700;-79.318;2023-11-19T04:44:01;99658.29;;;5.18;46.03
64139;BME280;50435;43.700;-79.318;2023-11-19T04:46:28;99662.68;;;5.14;46.09
64139;BME280;50435;43.700;-79.318;2023-11-19T04:48:55;99665.59;;;5.03;46.14
64139;BME280;50435;43.700;-79.318;2023-11-19T04:51:23;99664.17;;;5.07;46.14
64139;BME280;50435;43.700;-79.318;2023-11-19T04:53:50;99669.50;;;5.11;46.03
64139;BME280;50435;43.700;-79.318;2023-11-19T04:56:18;99670.98;;;4.93;46.24
64139;BME280;50435;43.700;-79.318;2023-11-19T04:58:45;99667.20;;;5.21;46.16
64139;BME280;50435;43.700;-79.318;2023-11-19T05:01:14;99671.28;;;4.88;46.36
64139;BME280;50435;43.700;-79.318;2023-11-19T05:03:41;99672.55;;;5.16;46.19
64139;BME280;50435;43.700;-79.318;2023-11-19T05:06:08;99673.82;;;5.10;46.10
64139;BME280;50435;43.700;-79.318;2023-11-19T05:08:36;99670.09;;;5.29;46.11
64139;BME280;50435;43.700;-79.318;2023-11-19T05:11:03;99667.95;;;4.77;46.53
64139;BME280;50435;43.700;-79.318;2023-11-19T05:13:31;99664.83;;;4.89;46.34
64139;BME280;50435;43.700;-79.318;2023-11-19T05:15:58;99662.99;;;4.78;46.58
64139;BME280;50435;43.700;-79.318;2023-11-19T05:18:26;99663.75;;;4.94;46.35
64139;BME280;50435;43.700;-79.318;2023-11-19T05:20:53;99665.88;;;5.15;46.31
64139;BME280;50435;43.700;-79.318;2023-11-19T05:23:21;99663.57;;;4.88;46.34
64139;BME280;50435;43.700;-79.318;2023-11-19T05:25:48;99663.11;;;4.63;46.68
64139;BME280;50435;43.700;-79.318;2023-11-19T05:28:16;99661.29;;;4.70;46.55
64139;BME280;50435;43.700;-79.318;2023-11-19T05:30:44;99659.62;;;5.04;46.39
64139;BME280;50435;43.700;-79.318;2023-11-19T05:33:11;99659.02;;;4.75;46.50
64139;BME280;50435;43.700;-79.318;2023-11-19T05:35:39;99656.58;;;5.32;46.24
64139;BME280;50435;43.700;-79.318;2023-11-19T05:38:06;99658.19;;;4.74;46.50
64139;BME280;50435;43.700;-79.318;2023-11-19T05:40:33;99653.74;;;4.91;46.37
64139;BME280;50435;43.700;-79.318;2023-11-19T05:43:01;99652.62;;;5.13;46.56
64139;BME280;50435;43.700;-79.318;2023-11-19T05:45:29;99649.41;;;4.90;46.46
64139;BME280;50435;43.700;-79.318;2023-11-19T05:47:57;99650.43;;;4.80;46.66
64139;BME280;50435;43.700;-79.318;2023-11-19T05:50:24;99649.47;;;4.72;47.00
64139;BME280;50435;43.700;-79.318;2023-11-19T05:52:51;99648.92;;;4.83;46.63
64139;BME280;50435;43.700;-79.318;2023-11-19T05:55:18;99646.75;;;4.52;46.80
64139;BME280;50435;43.700;-79.318;2023-11-19T05:57:46;99645.93;;;4.60;46.66
64139;BME280;50435;43.700;-79.318;2023-11-19T06:00:14;99646.04;;;4.76;46.77
64139;BME280;50435;43.700;-79.318;2023-11-19T06:02:42;99649.14;;;4.66;46.90
64139;BME280;50435;43.700;-79.318;2023-11-19T06:05:09;99645.49;;;4.46;46.87
64139;BME280;50435;43.700;-79.318;2023-11-19T06:07:36;99644.10;;;4.51;46.72
64139;BME280;50435;43.700;-79.318;2023-11-19T06:10:04;99648.00;;;4.39;46.96
64139;BME280;50435;43.700;-79.318;2023-11-19T06:12:32;99644.39;;;4.63;46.91
64139;BME280;50435;43.700;-79.318;2023-11-19T06:14:59;99646.15;;;4.94;46.77
64139;BME280;50435;43.700;-79.318;2023-11-19T06:17:27;99652.12;;;4.45;47.18
64139;BME280;50435;43.700;-79.318;2023-11-19T06:19:55;99656.79;;;4.89;46.88
64139;BME280;50435;43.700;-79.318;2023-11-19T06:22:22;99657.21;;;4.69;47.17
64139;BME280;50435;43.700;-79.318;2023-11-19T06:24:49;99651.22;;;4.37;47.35
64139;BME280;50435;43.700;-79.318;2023-11-19T06:27:17;99653.34;;;4.35;46.90
64139;BME280;50435;43.700;-79.318;2023-11-19T06:29:44;99650.01;;;4.67;46.85
64139;BME280;50435;43.700;-79.318;2023-11-19T06:32:12;99654.56;;;4.25;47.09
64139;BME280;50435;43.700;-79.318;2023-11-19T06:34:39;99649.52;;;4.75;47.05
64139;BME280;50435;43.700;-79.318;2023-11-19T06:37:08;99650.60;;;4.61;46.97
64139;BME280;50435;43.700;-79.318;2023-11-19T06:39:36;99653.06;;;4.84;47.02
64139;BME280;50435;43.700;-79.318;2023-11-19T06:42:04;99647.05;;;3.81;47.11
64139;BME280;50435;43.700;-79.318;2023-11-19T06:44:32;99652.34;;;4.89;46.86
64139;BME280;50435;43.700;-79.318;2023-11-19T06:46:59;99650.40;;;4.60;47.29
64139;BME280;50435;43.700;-79.318;2023-11-19T06:49:26;99650.92;;;4.40;47.21
64139;BME280;50435;43.700;-79.318;2023-11-19T06:51:54;99648.29;;;4.60;47.34
64139;BME280;50435;43.700;-79.318;2023-11-19T06:54:21;99642.22;;;4.73;47.10
64139;BME280;50435;43.700;-79.318;2023-11-19T06:56:49;99646.27;;;4.43;47.22
64139;BME280;50435;43.700;-79.318;2023-11-19T06:59:17;99642.12;;;4.34;47.46
64139;BME280;50435;43.700;-79.318;2023-11-19T07:01:44;99644.25;;;4.48;47.17
64139;BME280;50435;43.700;-79.318;2023-11-19T07:04:11;99654.05;;;4.15;47.32
64139;BME280;50435;43.700;-79.318;2023-11-19T07:06:39;99655.87;;;4.30;47.39
64139;BME280;50435;43.700;-79.318;2023-11-19T07:09:07;99662.13;;;4.61;47.25
64139;BME280;50435;43.700;-79.318;2023-11-19T07:11:35;99668.21;;;4.51;47.06
64139;BME280;50435;43.700;-79.318;2023-11-19T07:14:03;99673.61;;;4.61;47.23
64139;BME280;50435;43.700;-79.318;2023-11-19T07:16:30;99677.64;;;4.30;47.30
64139;BME280;50435;43.700;-79.318;2023-11-19T07:18:57;99677.60;;;4.57;47.28
64139;BME280;50435;43.700;-79.318;2023-11-19T07:21:25;99684.84;;;4.72;47.00
64139;BME280;50435;43.700;-79.318;2023-11-19T07:23:53;99684.34;;;4.53;47.00
64139;BME280;50435;43.700;-79.318;2023-11-19T07:26:20;99683.97;;;4.38;47.17
64139;BME280;50435;43.700;-79.318;2023-11-19T07:28:48;99680.44;;;4.29;47.33
64139;BME280;50435;43.700;-79.318;2023-11-19T07:31:16;99685.38;;;4.62;47.05
64139;BME280;50435;43.700;-79.318;2023-11-19T07:33:43;99683.73;;;4.63;47.13
64139;BME280;50435;43.700;-79.318;2023-11-19T07:36:11;99689.83;;;4.54;47.29
64139;BME280;50435;43.700;-79.318;2023-11-19T07:38:38;99689.78;;;4.75;46.90
64139;BME280;50435;43.700;-79.318;2023-11-19T07:41:06;99692.32;;;4.50;47.06
64139;BME280;50435;43.700;-79.318;2023-11-19T07:43:33;99696.92;;;4.18;47.44
64139;BME280;50435;43.700;-79.318;2023-11-19T07:46:01;99690.11;;;4.50;47.37
64139;BME280;50435;43.700;-79.318;2023-11-19T07:48:29;99684.92;;;4.45;47.39
64139;BME280;50435;43.700;-79.318;2023-11-19T07:50:56;99682.68;;;4.53;47.18
64139;BME280;50435;43.700;-79.318;2023-11-19T07:53:23;99683.01;;;4.48;47.33
64139;BME280;50435;43.700;-79.318;2023-11-19T07:55:50;99686.91;;;4.43;47.39
64139;BME280;50435;43.700;-79.318;2023-11-19T07:58:18;99687.06;;;4.18;47.50
64139;BME280;50435;43.700;-79.318;2023-11-19T08:00:45;99690.31;;;4.32;47.58
64139;BME280;50435;43.700;-79.318;2023-11-19T08:03:12;99686.54;;;4.41;47.37
64139;BME280;50435;43.700;-79.318;2023-11-19T08:05:39;99687.06;;;4.31;47.53
64139;BME280;50435;43.700;-79.318;2023-11-19T08:08:07;99690.85;;;4.18;47.42
64139;BME280;50435;43.700;-79.318;2023-11-19T08:10:34;99695.23;;;4.32;47.52
64139;BME280;50435;43.700;-79.318;2023-11-19T08:13:01;99698.36;;;4.21;47.58
64139;BME280;50435;43.700;-79.318;2023-11-19T08:15:29;99702.64;;;4.28;47.57
64139;BME280;50435;43.700;-79.318;2023-11-19T08:17:56;99701.51;;;4.28;47.54
64139;BME280;50435;43.700;-79.318;2023-11-19T08:20:24;99702.14;;;4.20;47.71
64139;BME280;50435;43.700;-79.318;2023-11-19T08:22:51;99706.47;;;4.16;47.64
64139;BME280;50435;43.700;-79.318;2023-11-19T08:25:18;99701.75;;;4.10;47.82
64139;BME280;50435;43.700;-79.318;2023-11-19T08:27:46;99704.17;;;3.88;47.78
64139;BME280;50435;43.700;-79.318;2023-11-19T08:30:13;99707.15;;;4.03;47.48
64139;BME280;50435;43.700;-79.318;2023-11-19T08:32:41;99705.74;;;4.14;47.69
64139;BME280;50435;43.700;-79.318;2023-11-19T08:35:08;99706.56;;;4.08;47.34
64139;BME280;50435;43.700;-79.318;2023-11-19T08:37:36;99709.57;;;4.11;47.73
64139;BME280;50435;43.700;-79.318;2023-11-19T08:40:05;99704.97;;;3.76;47.85
64139;BME280;50435;43.700;-79.318;2023-11-19T08:42:33;99708.96;;;3.77;47.79
64139;BME280;50435;43.700;-79.318;2023-11-19T08:45:00;99714.32;;;3.92;47.92
64139;BME280;50435;43.700;-79.318;2023-11-19T08:47:28;99718.19;;;4.02;47.86
64139;BME280;50435;43.700;-79.318;2023-11-19T08:49:56;99716.51;;;4.22;47.28
64139;BME280;50435;43.700;-79.318;2023-11-19T08:52:23;99716.67;;;4.16;47.38
64139;BME280;50435;43.700;-79.318;2023-11-19T08:54:51;99722.21;;;4.22;47.25
64139;BME280;50435;43.700;-79.318;2023-11-19T08:57:18;99722.48;;;4.22;47.34
64139;BME280;50435;43.700;-79.318;2023-11-19T08:59:46;99729.92;;;4.23;47.09
64139;BME280;50435;43.700;-79.318;2023-11-19T09:02:13;99729.22;;;4.15;46.96
64139;BME280;50435;43.700;-79.318;2023-11-19T09:04:41;99732.85;;;4.44;47.17
64139;BME280;50435;43.700;-79.318;2023-11-19T09:07:08;99742.68;;;4.10;47.27
64139;BME280;50435;43.700;-79.318;2023-11-19T09:09:36;99739.38;;;4.31;46.94
64139;BME280;50435;43.700;-79.318;2023-11-19T09:12:04;99740.84;;;4.02;47.02
64139;BME280;50435;43.700;-79.318;2023-11-19T09:14:31;99743.29;;;4.41;46.52
64139;BME280;50435;43.700;-79.318;2023-11-19T09:16:59;99747.44;;;4.28;46.79
64139;BME280;50435;43.700;-79.318;2023-11-19T09:19:26;99747.23;;;4.44;47.00
64139;BME280;50435;43.700;-79.318;2023-11-19T09:21:54;99748.58;;;4.54;47.13
64139;BME280;50435;43.700;-79.318;2023-11-19T09:24:22;99753.82;;;4.51;46.72
64139;BME280;50435;43.700;-79.318;2023-11-19T09:26:49;99752.62;;;4.16;46.84
64139;BME280;50435;43.700;-79.318;2023-11-19T09:29:17;99753.31;;;4.76;46.64
64139;BME280;50435;43.700;-79.318;2023-11-19T09:31:45;99747.19;;;4.26;47.27
64139;BME280;50435;43.700;-79.318;2023-11-19T09:34:12;99751.52;;;4.13;46.86
64139;BME280;50435;43.700;-79.318;2023-11-19T09:36:39;99753.54;;;4.65;46.81
64139;BME280;50435;43.700;-79.318;2023-11-19T09:39:06;99755.41;;;4.24;46.71
64139;BME280;50435;43.700;-79.318;2023-11-19T09:41:34;99757.17;;;4.37;46.87
64139;BME280;50435;43.700;-79.318;2023-11-19T09:44:01;99756.19;;;4.07;46.97
64139;BME280;50435;43.700;-79.318;2023-11-19T09:46:30;99759.64;;;4.55;47.13
64139;BME280;50435;43.700;-79.318;2023-11-19T09:48:58;99759.25;;;4.31;47.07
64139;BME280;50435;43.700;-79.318;2023-11-19T09:51:26;99757.95;;;4.69;46.72
64139;BME280;50435;43.700;-79.318;2023-11-19T09:53:53;99758.50;;;4.39;47.12
64139;BME280;50435;43.700;-79.318;2023-11-19T09:56:21;99761.07;;;4.54;47.01
64139;BME280;50435;43.700;-79.318;2023-11-19T09:58:50;99756.88;;;4.46;47.04
64139;BME280;50435;43.700;-79.318;2023-11-19T10:01:18;99765.53;;;4.21;47.21
64139;BME280;50435;43.700;-79.318;2023-11-19T10:03:47;99768.33;;;4.47;47.00
64139;BME280;50435;43.700;-79.318;2023-11-19T10:06:16;99765.24;;;3.81;47.46
64139;BME280;50435;43.700;-79.318;2023-11-19T10:08:44;99769.53;;;4.18;47.14
64139;BME280;50435;43.700;-79.318;2023-11-19T10:11:12;99769.39;;;4.15;47.13
64139;BME280;50435;43.700;-79.318;2023-11-19T10:13:40;99768.79;;;4.12;47.70
64139;BME280;50435;43.700;-79.318;2023-11-19T10:16:08;99767.26;;;3.82;47.39
64139;BME280;50435;43.700;-79.318;2023-11-19T10:18:36;99769.69;;;4.29;47.43
64139;BME280;50435;43.700;-79.318;2023-11-19T10:21:04;99769.18;;;3.75;47.04
64139;BME280;50435;43.700;-79.318;2023-11-19T10:23:48;99773.41;;;4.37;47.32
64139;BME280;50435;43.700;-79.318;2023-11-19T10:26:16;99769.27;;;3.83;47.37
64139;BME280;50435;43.700;-79.318;2023-11-19T10:28:46;99772.06;;;4.18;47.33
64139;BME280;50435;43.700;-79.318;2023-11-19T10:31:13;99773.44;;;4.06;47.36
64139;BME280;50435;43.700;-79.318;2023-11-19T10:33:41;99771.70;;;4.05;47.32
64139;BME280;50435;43.700;-79.318;2023-11-19T10:36:08;99770.19;;;4.08;47.21
64139;BME280;50435;43.700;-79.318;2023-11-19T10:38:35;99769.06;;;4.14;47.60
64139;BME280;50435;43.700;-79.318;2023-11-19T10:41:03;99771.70;;;3.98;47.41
64139;BME280;50435;43.700;-79.318;2023-11-19T10:43:31;99768.36;;;4.01;47.39
64139;BME280;50435;43.700;-79.318;2023-11-19T10:46:10;99766.14;;;3.54;47.65
64139;BME280;50435;43.700;-79.318;2023-11-19T10:48:39;99766.85;;;4.01;47.30
64139;BME280;50435;43.700;-79.318;2023-11-19T10:51:07;99766.09;;;3.86;47.57
64139;BME280;50435;43.700;-79.318;2023-11-19T10:53:37;99762.47;;;4.08;47.53
64139;BME280;50435;43.700;-79.318;2023-11-19T10:56:10;99764.22;;;3.46;47.54
64139;BME280;50435;43.700;-79.318;2023-11-19T10:58:41;99763.69;;;4.07;47.44
64139;BME280;50435;43.700;-79.318;2023-11-19T11:01:16;99764.17;;;4.13;47.20
64139;BME280;50435;43.700;-79.318;2023-11-19T11:03:46;99763.45;;;4.01;47.45
64139;BME280;50435;43.700;-79.318;2023-11-19T11:06:14;99769.93;;;4.18;47.03
64139;BME280;50435;43.700;-79.318;2023-11-19T11:08:42;99768.82;;;4.04;47.28
64139;BME280;50435;43.700;-79.318;2023-11-19T11:11:13;99770.93;;;3.76;47.85
64139;BME280;50435;43.700;-79.318;2023-11-19T11:13:43;99779.31;;;4.01;47.39
64139;BME280;50435;43.700;-79.318;2023-11-19T11:16:12;99777.55;;;3.92;47.10
64139;BME280;50435;43.700;-79.318;2023-11-19T11:18:39;99782.32;;;3.98;47.54
64139;BME280;50435;43.700;-79.318;2023-11-19T11:21:10;99784.53;;;4.05;47.44
64139;BME280;50435;43.700;-79.318;2023-11-19T11:23:56;99790.65;;;4.03;47.44
64139;BME280;50435;43.700;-79.318;2023-11-19T11:26:43;99786.36;;;4.02;47.43
64139;BME280;50435;43.700;-79.318;2023-11-19T11:29:24;99784.07;;;4.15;47.14
64139;BME280;50435;43.700;-79.318;2023-11-19T11:31:59;99780.26;;;3.81;47.39
64139;BME280;50435;43.700;-79.318;2023-11-19T11:34:46;99780.21;;;3.96;47.57
64139;BME280;50435;43.700;-79.318;2023-11-19T11:37:21;99783.97;;;4.06;47.42
64139;BME280;50435;43.700;-79.318;2023-11-19T11:39:52;99787.04;;;4.03;47.55
64139;BME280;50435;43.700;-79.318;2023-11-19T11:42:43;99787.33;;;4.11;47.24
64139;BME280;50435;43.700;-79.318;2023-11-19T11:45:12;99785.80;;;3.61;47.24
64139;BME280;50435;43.700;-79.318;2023-11-19T11:48:45;99792.56;;;3.92;47.54
64139;BME280;50435;43.700;-79.318;2023-11-19T11:51:14;99788.49;;;4.00;47.52
64139;BME280;50435;43.700;-79.318;2023-11-19T11:53:42;99787.44;;;3.97;47.36
64139;BME280;50435;43.700;-79.318;2023-11-19T11:56:10;99787.74;;;4.03;47.38
64139;BME280;50435;43.700;-79.318;2023-11-19T11:58:38;99791.17;;;4.02;47.23
64139;BME280;50435;43.700;-79.318;2023-11-19T12:01:07;99793.29;;;3.93;47.64
64139;BME280;50435;43.700;-79.318;2023-11-19T12:03:35;99797.64;;;3.98;47.40
64139;BME280;50435;43.700;-79.318;2023-11-19T12:06:05;99803.38;;;3.30;47.39
64139;BME280;50435;43.700;-79.318;2023-11-19T12:08:35;99803.14;;;4.11;47.22
64139;BME280;50435;43.700;-79.318;2023-11-19T12:11:02;99802.98;;;4.02;47.31
64139;BME280;50435;43.700;-79.318;2023-11-19T12:13:47;99805.68;;;3.71;47.46
64139;BME280;50435;43.700;-79.318;2023-11-19T12:16:15;99809.02;;;3.88;47.72
64139;BME280;50435;43.700;-79.318;2023-11-19T12:18:42;99809.23;;;3.73;47.57
64139;BME280;50435;43.700;-79.318;2023-11-19T12:21:09;99816.51;;;3.70;47.53
64139;BME280;50435;43.700;-79.318;2023-11-19T12:23:45;99814.74;;;3.98;47.55
64139;BME280;50435;43.700;-79.318;2023-11-19T12:26:31;99820.51;;;3.83;47.84
64139;BME280;50435;43.700;-79.318;2023-11-19T12:28:58;99822.23;;;3.65;47.84
64139;BME280;50435;43.700;-79.318;2023-11-19T12:31:25;99825.41;;;3.96;47.66
64139;BME280;50435;43.700;-79.318;2023-11-19T12:33:53;99828.69;;;3.49;47.56
64139;BME280;50435;43.700;-79.318;2023-11-19T12:36:21;99831.78;;;4.09;47.45
64139;BME280;50435;43.700;-79.318;2023-11-19T12:38:49;99834.39;;;3.96;47.69
64139;BME280;50435;43.700;-79.318;2023-11-19T12:41:16;99833.94;;;4.19;47.30
64139;BME280;50435;43.700;-79.318;2023-11-19T12:43:43;99841.41;;;4.08;47.45
64139;BME280;50435;43.700;-79.318;2023-11-19T12:46:18;99845.78;;;3.84;47.50
64139;BME280;50435;43.700;-79.318;2023-11-19T12:48:46;99844.10;;;4.02;47.65
64139;BME280;50435;43.700;-79.318;2023-11-19T12:51:14;99848.96;;;4.01;47.63
64139;BME280;50435;43.700;-79.318;2023-11-19T12:53:49;99855.67;;;3.94;47.49
64139;BME280;50435;43.700;-79.318;2023-11-19T12:56:17;99854.68;;;3.91;47.46